sensor_id;sensor_type;location;lat;lon;timestamp;pressure;altitude;pressure_sealevel;temperature;humidity
53506;BME280;39388;50.936;6.848;2023-02-28T00:00:43;102333.13;;;1.98;60.70
53506;BME280;39388;50.936;6.848;2023-02-28T00:03:14;102334.78;;;1.98;60.42
53506;BME280;39388;50.936;6.848;2023-02-28T00:05:44;102340.69;;;1.97;60.52
53506;BME280;39388;50.936;6.848;2023-02-28T00:08:14;102347.44;;;1.96;60.33
53506;BME280;39388;50.936;6.848;2023-02-28T00:10:45;102336.63;;;1.85;60.86
53506;BME280;39388;50.936;6.848;2023-02-28T00:13:15;102339.28;;;1.87;60.72
53506;BME280;39388;50.936;6.848;2023-02-28T00:15:46;102339.28;;;1.87;60.45
53506;BME280;39388;50.936;6.848;2023-02-28T00:18:17;102338.91;;;1.81;60.65
53506;BME280;39388;50.936;6.848;2023-02-28T00:20:47;102341.38;;;1.79;60.51
53506;BME280;39388;50.936;6.848;2023-02-28T00:23:17;102339.38;;;1.74;61.18
53506;BME280;39388;50.936;6.848;2023-02-28T00:25:48;102336.84;;;1.74;60.64
53506;BME280;39388;50.936;6.848;2023-02-28T00:28:19;102329.53;;;1.65;60.82
53506;BME280;39388;50.936;6.848;2023-02-28T00:30:49;102338.28;;;1.70;60.76
53506;BME280;39388;50.936;6.848;2023-02-28T00:33:20;102341.63;;;1.69;61.39
53506;BME280;39388;50.936;6.848;2023-02-28T00:35:50;102326.63;;;1.59;61.03
53506;BME280;39388;50.936;6.848;2023-02-28T00:38:20;102344.69;;;1.63;60.96
53506;BME280;39388;50.936;6.848;2023-02-28T00:40:51;102337.50;;;1.56;61.12
53506;BME280;39388;50.936;6.848;2023-02-28T00:43:21;102335.75;;;1.55;61.47
53506;BME280;39388;50.936;6.848;2023-02-28T00:45:52;102338.56;;;1.60;61.59
53506;BME280;39388;50.936;6.848;2023-02-28T00:48:22;102349.63;;;1.60;60.70
53506;BME280;39388;50.936;6.848;2023-02-28T00:50:52;102343.31;;;1.53;61.31
53506;BME280;39388;50.936;6.848;2023-02-28T00:53:23;102341.72;;;1.55;61.25
53506;BME280;39388;50.936;6.848;2023-02-28T00:55:53;102344.16;;;1.54;61.17
53506;BME280;39388;50.936;6.848;2023-02-28T00:58:24;102328.28;;;1.43;61.42
53506;BME280;39388;50.936;6.848;2023-02-28T01:00:55;102342.84;;;1.46;61.31
53506;BME280;39388;50.936;6.848;2023-02-28T01:03:25;102343.72;;;1.46;61.96
53506;BME280;39388;50.936;6.848;2023-02-28T01:05:55;102347.16;;;1.47;61.39
53506;BME280;39388;50.936;6.848;2023-02-28T01:08:26;102341.25;;;1.48;61.44
53506;BME280;39388;50.936;6.848;2023-02-28T01:10:56;102354.16;;;1.51;62.32
53506;BME280;39388;50.936;6.848;2023-02-28T01:13:27;102335.13;;;1.44;62.09
53506;BME280;39388;50.936;6.848;2023-02-28T01:15:57;102344.31;;;1.42;61.56
53506;BME280;39388;50.936;6.848;2023-02-28T01:18:27;102352.91;;;1.44;62.16
53506;BME280;39388;50.936;6.848;2023-02-28T01:21:03;102334.41;;;1.32;62.37
53506;BME280;39388;50.936;6.848;2023-02-28T01:23:34;102345.72;;;1.37;62.17
53506;BME280;39388;50.936;6.848;2023-02-28T01:26:10;102340.72;;;1.38;62.84
53506;BME280;39388;50.936;6.848;2023-02-28T01:28:42;102342.09;;;1.33;62.62
53506;BME280;39388;50.936;6.848;2023-02-28T01:31:13;102343.09;;;1.35;62.14
53506;BME280;39388;50.936;6.848;2023-02-28T01:33:44;102344.84;;;1.36;62.89
53506;BME280;39388;50.936;6.848;2023-02-28T01:36:17;102343.28;;;1.38;62.29
53506;BME280;39388;50.936;6.848;2023-02-28T01:38:48;102346.53;;;1.36;62.36
53506;BME280;39388;50.936;6.848;2023-02-28T01:41:30;102349.66;;;1.32;62.70
53506;BME280;39388;50.936;6.848;2023-02-28T01:44:03;102340.47;;;1.34;62.41
53506;BME280;39388;50.936;6.848;2023-02-28T01:46:35;102343.78;;;1.33;62.84
53506;BME280;39388;50.936;6.848;2023-02-28T01:49:12;102339.28;;;1.29;62.55
53506;BME280;39388;50.936;6.848;2023-02-28T01:51:53;102345.28;;;1.29;62.97
53506;BME280;39388;50.936;6.848;2023-02-28T01:54:30;102339.22;;;1.27;62.50
53506;BME280;39388;50.936;6.848;2023-02-28T01:57:05;102328.09;;;1.25;62.26
53506;BME280;39388;50.936;6.848;2023-02-28T01:59:42;102322.03;;;1.23;62.65
53506;BME280;39388;50.936;6.848;2023-02-28T02:02:18;102327.69;;;1.19;62.82
53506;BME280;39388;50.936;6.848;2023-02-28T02:05:10;102329.56;;;1.21;62.78
53506;BME280;39388;50.936;6.848;2023-02-28T02:07:44;102323.13;;;1.13;63.17
53506;BME280;39388;50.936;6.848;2023-02-28T02:10:17;102333.50;;;1.16;62.76
53506;BME280;39388;50.936;6.848;2023-02-28T02:19:29;102302.78;;;0.98;63.11
53506;BME280;39388;50.936;6.848;2023-02-28T02:36:05;102311.94;;;1.09;62.70
53506;BME280;39388;50.936;6.848;2023-02-28T02:38:49;102303.31;;;1.07;62.48
53506;BME280;39388;50.936;6.848;2023-02-28T02:41:30;102304.81;;;1.04;62.89
53506;BME280;39388;50.936;6.848;2023-02-28T02:44:26;102303.56;;;0.97;62.44
53506;BME280;39388;50.936;6.848;2023-02-28T02:47:05;102306.13;;;0.97;62.57
53506;BME280;39388;50.936;6.848;2023-02-28T02:49:40;102304.28;;;0.95;62.67
53506;BME280;39388;50.936;6.848;2023-02-28T02:52:15;102297.84;;;0.86;63.09
53506;BME280;39388;50.936;6.848;2023-02-28T02:54:48;102316.28;;;0.97;62.92
53506;BME280;39388;50.936;6.848;2023-02-28T02:57:27;102314.50;;;0.96;63.03
53506;BME280;39388;50.936;6.848;2023-02-28T03:00:00;102308.97;;;0.88;63.08
53506;BME280;39388;50.936;6.848;2023-02-28T03:02:32;102310.81;;;0.91;62.71
53506;BME280;39388;50.936;6.848;2023-02-28T03:05:42;102317.56;;;0.90;63.42
53506;BME280;39388;50.936;6.848;2023-02-28T03:08:14;102302.06;;;0.86;62.86
53506;BME280;39388;50.936;6.848;2023-02-28T03:10:48;102310.13;;;0.93;62.90
53506;BME280;39388;50.936;6.848;2023-02-28T03:24:27;102301.34;;;0.88;62.77
53506;BME280;39388;50.936;6.848;2023-02-28T03:27:29;102286.63;;;0.83;62.63
53506;BME280;39388;50.936;6.848;2023-02-28T03:30:04;102284.69;;;0.78;62.21
53506;BME280;39388;50.936;6.848;2023-02-28T03:35:10;102303.53;;;0.82;62.87
53506;BME280;39388;50.936;6.848;2023-02-28T03:37:43;102305.97;;;0.81;62.33
53506;BME280;39388;50.936;6.848;2023-02-28T03:40:17;102295.53;;;0.76;62.00
53506;BME280;39388;50.936;6.848;2023-02-28T03:42:54;102291.06;;;0.72;62.59
53506;BME280;39388;50.936;6.848;2023-02-28T03:45:32;102302.44;;;0.78;62.04
53506;BME280;39388;50.936;6.848;2023-02-28T03:48:08;102302.44;;;0.78;61.83
53506;BME280;39388;50.936;6.848;2023-02-28T03:50:42;102304.91;;;0.77;62.14
53506;BME280;39388;50.936;6.848;2023-02-28T03:53:19;102287.44;;;0.68;61.97
53506;BME280;39388;50.936;6.848;2023-02-28T03:56:03;102290.78;;;0.67;61.90
53506;BME280;39388;50.936;6.848;2023-02-28T04:04:01;102308.16;;;0.74;61.60
53506;BME280;39388;50.936;6.848;2023-02-28T04:06:33;102308.94;;;0.73;62.03
53506;BME280;39388;50.936;6.848;2023-02-28T04:09:05;102281.44;;;0.53;61.52
53506;BME280;39388;50.936;6.848;2023-02-28T04:11:40;102301.44;;;0.61;62.05
53506;BME280;39388;50.936;6.848;2023-02-28T04:14:12;102307.56;;;0.65;62.42
53506;BME280;39388;50.936;6.848;2023-02-28T04:16:42;102311.09;;;0.67;61.60
53506;BME280;39388;50.936;6.848;2023-02-28T04:19:13;102306.50;;;0.61;61.83
53506;BME280;39388;50.936;6.848;2023-02-28T04:21:46;102304.56;;;0.57;62.10
53506;BME280;39388;50.936;6.848;2023-02-28T04:24:21;102309.06;;;0.61;62.25
53506;BME280;39388;50.936;6.848;2023-02-28T04:26:54;102300.19;;;0.55;62.25
53506;BME280;39388;50.936;6.848;2023-02-28T04:29:27;102307.28;;;0.60;62.53
53506;BME280;39388;50.936;6.848;2023-02-28T04:31:58;102311.31;;;0.57;61.85
53506;BME280;39388;50.936;6.848;2023-02-28T04:34:30;102316.09;;;0.52;62.30
53506;BME280;39388;50.936;6.848;2023-02-28T04:37:02;102310.63;;;0.46;62.09
53506;BME280;39388;50.936;6.848;2023-02-28T04:39:35;102306.91;;;0.41;62.81
53506;BME280;39388;50.936;6.848;2023-02-28T04:42:06;102312.00;;;0.41;62.90
53506;BME280;39388;50.936;6.848;2023-02-28T04:44:37;102310.06;;;0.37;62.63
53506;BME280;39388;50.936;6.848;2023-02-28T04:47:07;102314.66;;;0.42;63.11
53506;BME280;39388;50.936;6.848;2023-02-28T04:49:38;102317.28;;;0.44;63.37
53506;BME280;39388;50.936;6.848;2023-02-28T04:52:08;102314.72;;;0.44;62.81
53506;BME280;39388;50.936;6.848;2023-02-28T04:54:40;102316.28;;;0.42;63.09
53506;BME280;39388;50.936;6.848;2023-02-28T04:57:10;102320.72;;;0.44;63.54
53506;BME280;39388;50.936;6.848;2023-02-28T04:59:41;102321.47;;;0.43;63.45
53506;BME280;39388;50.936;6.848;2023-02-28T05:02:11;102319.53;;;0.39;63.62
53506;BME280;39388;50.936;6.848;2023-02-28T05:04:41;102321.19;;;0.39;63.06
53506;BME280;39388;50.936;6.848;2023-02-28T05:07:12;102331.34;;;0.39;63.00
53506;BME280;39388;50.936;6.848;2023-02-28T05:09:42;102327.72;;;0.35;63.76
53506;BME280;39388;50.936;6.848;2023-02-28T05:12:12;102328.50;;;0.34;63.51
53506;BME280;39388;50.936;6.848;2023-02-28T05:14:43;102327.72;;;0.35;63.90
53506;BME280;39388;50.936;6.848;2023-02-28T05:17:14;102320.59;;;0.29;63.29
53506;BME280;39388;50.936;6.848;2023-02-28T05:19:44;102329.28;;;0.33;64.04
53506;BME280;39388;50.936;6.848;2023-02-28T05:22:15;102337.97;;;0.37;63.65
53506;BME280;39388;50.936;6.848;2023-02-28T05:24:48;102338.66;;;0.34;63.19
53506;BME280;39388;50.936;6.848;2023-02-28T05:27:19;102325.19;;;0.35;63.93
53506;BME280;39388;50.936;6.848;2023-02-28T05:29:49;102333.56;;;0.34;63.95
53506;BME280;39388;50.936;6.848;2023-02-28T05:32:20;102329.28;;;0.33;63.38
53506;BME280;39388;50.936;6.848;2023-02-28T05:34:50;102337.09;;;0.36;63.78
53506;BME280;39388;50.936;6.848;2023-02-28T05:37:20;102327.84;;;0.37;63.19
53506;BME280;39388;50.936;6.848;2023-02-28T05:39:51;102335.25;;;0.34;63.70
53506;BME280;39388;50.936;6.848;2023-02-28T05:42:21;102337.97;;;0.37;62.87
53506;BME280;39388;50.936;6.848;2023-02-28T05:44:51;102330.94;;;0.32;63.23
53506;BME280;39388;50.936;6.848;2023-02-28T05:47:22;102336.88;;;0.33;63.12
53506;BME280;39388;50.936;6.848;2023-02-28T05:49:52;102334.97;;;0.29;63.19
53506;BME280;39388;50.936;6.848;2023-02-28T05:52:22;102332.31;;;0.27;63.29
53506;BME280;39388;50.936;6.848;2023-02-28T05:54:53;102336.81;;;0.31;62.90
53506;BME280;39388;50.936;6.848;2023-02-28T05:57:24;102343.34;;;0.28;63.67
53506;BME280;39388;50.936;6.848;2023-02-28T05:59:54;102329.59;;;0.24;62.86
53506;BME280;39388;50.936;6.848;2023-02-28T06:02:24;102342.47;;;0.27;63.38
53506;BME280;39388;50.936;6.848;2023-02-28T06:04:55;102332.13;;;0.24;63.03
53506;BME280;39388;50.936;6.848;2023-02-28T06:07:25;102337.22;;;0.24;62.93
53506;BME280;39388;50.936;6.848;2023-02-28T06:09:55;102317.59;;;0.22;63.08
53506;BME280;39388;50.936;6.848;2023-02-28T06:12:26;102340.13;;;0.30;63.49
53506;BME280;39388;50.936;6.848;2023-02-28T06:14:56;102328.22;;;0.29;62.54
53506;BME280;39388;50.936;6.848;2023-02-28T06:17:26;102331.81;;;0.33;62.83
53506;BME280;39388;50.936;6.848;2023-02-28T06:19:57;102334.47;;;0.35;62.08
53506;BME280;39388;50.936;6.848;2023-02-28T06:22:27;102339.91;;;0.41;62.66
53506;BME280;39388;50.936;6.848;2023-02-28T06:24:58;102338.97;;;0.39;61.99
53506;BME280;39388;50.936;6.848;2023-02-28T06:27:28;102351.03;;;0.43;62.42
53506;BME280;39388;50.936;6.848;2023-02-28T06:29:59;102351.72;;;0.40;62.04
53506;BME280;39388;50.936;6.848;2023-02-28T06:32:29;102349.69;;;0.35;62.17
53506;BME280;39388;50.936;6.848;2023-02-28T06:35:00;102355.13;;;0.41;61.76
53506;BME280;39388;50.936;6.848;2023-02-28T06:37:31;102357.88;;;0.44;61.77
53506;BME280;39388;50.936;6.848;2023-02-28T06:40:02;102371.63;;;0.47;61.83
53506;BME280;39388;50.936;6.848;2023-02-28T06:42:33;102365.97;;;0.52;61.83
53506;BME280;39388;50.936;6.848;2023-02-28T06:45:03;102367.03;;;0.55;61.34
53506;BME280;39388;50.936;6.848;2023-02-28T06:47:40;102376.53;;;0.58;61.70
53506;BME280;39388;50.936;6.848;2023-02-28T06:50:12;102372.13;;;0.55;61.16
53506;BME280;39388;50.936;6.848;2023-02-28T06:52:43;102378.38;;;0.60;61.25
53506;BME280;39388;50.936;6.848;2023-02-28T06:55:13;102381.88;;;0.62;61.25
53506;BME280;39388;50.936;6.848;2023-02-28T06:57:43;102384.72;;;0.67;61.19
53506;BME280;39388;50.936;6.848;2023-02-28T07:00:14;102386.38;;;0.67;60.37
53506;BME280;39388;50.936;6.848;2023-02-28T07:02:45;102392.72;;;0.73;60.15
53506;BME280;39388;50.936;6.848;2023-02-28T07:05:15;102395.25;;;0.73;60.55
53506;BME280;39388;50.936;6.848;2023-02-28T07:07:46;102388.78;;;0.78;59.96
53506;BME280;39388;50.936;6.848;2023-02-28T07:10:17;102383.13;;;0.83;59.98
53506;BME280;39388;50.936;6.848;2023-02-28T07:12:47;102386.06;;;0.89;59.36
53506;BME280;39388;50.936;6.848;2023-02-28T07:15:18;102393.34;;;0.98;59.44
53506;BME280;39388;50.936;6.848;2023-02-28T07:17:48;102384.25;;;1.01;59.37
53506;BME280;39388;50.936;6.848;2023-02-28T07:20:18;102386.19;;;1.05;59.21
53506;BME280;39388;50.936;6.848;2023-02-28T07:22:50;102397.31;;;1.07;59.08
53506;BME280;39388;50.936;6.848;2023-02-28T07:25:27;102395.75;;;1.09;58.08
53506;BME280;39388;50.936;6.848;2023-02-28T07:27:57;102394.19;;;1.12;57.86
53506;BME280;39388;50.936;6.848;2023-02-28T07:30:29;102397.19;;;1.19;57.26
53506;BME280;39388;50.936;6.848;2023-02-28T07:32:59;102400.81;;;1.23;57.25
53506;BME280;39388;50.936;6.848;2023-02-28T07:35:30;102393.06;;;1.35;57.25
53506;BME280;39388;50.936;6.848;2023-02-28T07:38:00;102396.25;;;1.61;56.75
53506;BME280;39388;50.936;6.848;2023-02-28T07:40:31;102394.88;;;1.66;56.60
53506;BME280;39388;50.936;6.848;2023-02-28T07:43:02;102402.31;;;1.78;55.60
53506;BME280;39388;50.936;6.848;2023-02-28T07:45:33;102395.59;;;1.78;55.71
53506;BME280;39388;50.936;6.848;2023-02-28T07:48:04;102399.63;;;1.75;55.46
53506;BME280;39388;50.936;6.848;2023-02-28T07:50:34;102390.84;;;1.69;55.64
53506;BME280;39388;50.936;6.848;2023-02-28T07:53:05;102401.19;;;1.73;55.40
53506;BME280;39388;50.936;6.848;2023-02-28T07:55:35;102396.97;;;1.73;55.23
53506;BME280;39388;50.936;6.848;2023-02-28T07:58:05;102395.41;;;1.75;55.84
53506;BME280;39388;50.936;6.848;2023-02-28T08:00:36;102399.88;;;1.79;55.54
53506;BME280;39388;50.936;6.848;2023-02-28T08:03:10;102401.13;;;1.86;55.50
53506;BME280;39388;50.936;6.848;2023-02-28T08:05:41;102406.66;;;1.94;55.44
53506;BME280;39388;50.936;6.848;2023-02-28T08:08:12;102397.34;;;1.94;54.13
53506;BME280;39388;50.936;6.848;2023-02-28T08:10:43;102410.31;;;1.99;54.44
53506;BME280;39388;50.936;6.848;2023-02-28T08:13:13;102402.34;;;2.08;53.63
53506;BME280;39388;50.936;6.848;2023-02-28T08:15:44;102399.97;;;2.11;53.42
53506;BME280;39388;50.936;6.848;2023-02-28T08:18:15;102391.38;;;2.09;52.96
53506;BME280;39388;50.936;6.848;2023-02-28T08:20:45;102410.66;;;2.20;53.57
53506;BME280;39388;50.936;6.848;2023-02-28T08:23:16;102402.84;;;2.32;52.84
53506;BME280;39388;50.936;6.848;2023-02-28T08:25:53;102402.50;;;2.41;52.16
53506;BME280;39388;50.936;6.848;2023-02-28T08:28:24;102401.78;;;2.43;51.90
53506;BME280;39388;50.936;6.848;2023-02-28T08:30:54;102408.88;;;2.49;51.27
53506;BME280;39388;50.936;6.848;2023-02-28T08:33:26;102416.81;;;2.54;51.26
53506;BME280;39388;50.936;6.848;2023-02-28T08:35:57;102408.53;;;2.58;50.30
53506;BME280;39388;50.936;6.848;2023-02-28T08:38:27;102407.84;;;2.60;50.38
53506;BME280;39388;50.936;6.848;2023-02-28T08:41:00;102412.47;;;2.68;50.00
53506;BME280;39388;50.936;6.848;2023-02-28T08:43:31;102412.63;;;2.71;50.13
53506;BME280;39388;50.936;6.848;2023-02-28T08:46:02;102420.44;;;2.74;49.35
53506;BME280;39388;50.936;6.848;2023-02-28T08:48:34;102419.25;;;2.84;49.01
53506;BME280;39388;50.936;6.848;2023-02-28T08:51:08;102408.63;;;2.91;49.56
53506;BME280;39388;50.936;6.848;2023-02-28T08:53:39;102409.34;;;2.88;48.79
53506;BME280;39388;50.936;6.848;2023-02-28T08:56:13;102410.44;;;2.93;48.17
53506;BME280;39388;50.936;6.848;2023-02-28T08:58:44;102416.06;;;3.03;48.06
53506;BME280;39388;50.936;6.848;2023-02-28T09:01:20;102401.63;;;3.03;46.58
53506;BME280;39388;50.936;6.848;2023-02-28T09:03:51;102420.59;;;3.08;46.23
53506;BME280;39388;50.936;6.848;2023-02-28T09:06:23;102417.31;;;3.11;45.84
53506;BME280;39388;50.936;6.848;2023-02-28T09:08:57;102414.78;;;3.11;45.10
53506;BME280;39388;50.936;6.848;2023-02-28T09:11:29;102409.69;;;3.11;44.48
53506;BME280;39388;50.936;6.848;2023-02-28T09:14:00;102403.63;;;3.09;44.92
53506;BME280;39388;50.936;6.848;2023-02-28T09:16:31;102421.16;;;3.19;44.25
53506;BME280;39388;50.936;6.848;2023-02-28T09:19:02;102400.75;;;3.19;43.39
53506;BME280;39388;50.936;6.848;2023-02-28T09:21:32;102410.31;;;3.23;43.20
53506;BME280;39388;50.936;6.848;2023-02-28T09:24:03;102397.69;;;3.25;43.42
53506;BME280;39388;50.936;6.848;2023-02-28T09:26:33;102391.53;;;3.21;43.73
53506;BME280;39388;50.936;6.848;2023-02-28T09:29:04;102393.13;;;3.36;43.98
53506;BME280;39388;50.936;6.848;2023-02-28T09:31:35;102395.81;;;3.39;44.05
53506;BME280;39388;50.936;6.848;2023-02-28T09:34:05;102402.84;;;3.43;43.99
53506;BME280;39388;50.936;6.848;2023-02-28T09:36:35;102395.38;;;3.46;43.58
53506;BME280;39388;50.936;6.848;2023-02-28T09:39:09;102392.72;;;3.45;43.07
53506;BME280;39388;50.936;6.848;2023-02-28T09:41:42;102389.53;;;3.49;43.16
53506;BME280;39388;50.936;6.848;2023-02-28T09:44:24;102389.69;;;3.52;42.99
53506;BME280;39388;50.936;6.848;2023-02-28T09:49:47;102393.66;;;3.63;41.85
53506;BME280;39388;50.936;6.848;2023-02-28T09:52:21;102405.84;;;3.69;41.78
53506;BME280;39388;50.936;6.848;2023-02-28T09:55:04;102394.78;;;3.68;41.26
53506;BME280;39388;50.936;6.848;2023-02-28T09:57:49;102398.84;;;3.65;41.63
53506;BME280;39388;50.936;6.848;2023-02-28T10:00:24;102393.16;;;3.71;41.22
53506;BME280;39388;50.936;6.848;2023-02-28T10:05:59;102389.34;;;3.79;41.72
53506;BME280;39388;50.936;6.848;2023-02-28T10:08:38;102378.25;;;3.78;41.48
53506;BME280;39388;50.936;6.848;2023-02-28T10:11:16;102383.81;;;3.88;41.72
53506;BME280;39388;50.936;6.848;2023-02-28T10:20:17;102388.59;;;4.16;41.37
53506;BME280;39388;50.936;6.848;2023-02-28T10:25:28;102379.47;;;4.21;41.33
53506;BME280;39388;50.936;6.848;2023-02-28T10:28:19;102385.22;;;4.35;41.56
53506;BME280;39388;50.936;6.848;2023-02-28T10:30:51;102383.03;;;4.43;40.97
53506;BME280;39388;50.936;6.848;2023-02-28T10:33:35;102375.53;;;4.46;41.67
53506;BME280;39388;50.936;6.848;2023-02-28T10:36:06;102390.34;;;4.53;40.77
53506;BME280;39388;50.936;6.848;2023-02-28T10:38:39;102384.44;;;4.54;40.57
53506;BME280;39388;50.936;6.848;2023-02-28T10:41:27;102369.13;;;4.54;40.72
53506;BME280;39388;50.936;6.848;2023-02-28T10:44:20;102378.88;;;4.63;40.30
53506;BME280;39388;50.936;6.848;2023-02-28T10:46:51;102377.72;;;4.56;39.94
53506;BME280;39388;50.936;6.848;2023-02-28T10:51:55;102360.91;;;4.61;40.37
53506;BME280;39388;50.936;6.848;2023-02-28T10:54:32;102366.44;;;4.71;40.61
53506;BME280;39388;50.936;6.848;2023-02-28T10:57:18;102382.13;;;4.79;40.20
53506;BME280;39388;50.936;6.848;2023-02-28T11:00:07;102365.72;;;4.73;39.79
53506;BME280;39388;50.936;6.848;2023-02-28T11:02:42;102357.97;;;4.72;40.13
53506;BME280;39388;50.936;6.848;2023-02-28T11:05:35;102354.16;;;4.82;40.21
53506;BME280;39388;50.936;6.848;2023-02-28T11:08:12;102364.00;;;4.92;40.38
53506;BME280;39388;50.936;6.848;2023-02-28T11:10:46;102348.94;;;4.98;40.13
53506;BME280;39388;50.936;6.848;2023-02-28T11:13:19;102357.47;;;4.99;39.97
53506;BME280;39388;50.936;6.848;2023-02-28T11:15:55;102344.78;;;5.00;40.09
53506;BME280;39388;50.936;6.848;2023-02-28T11:18:41;102342.56;;;5.08;40.52
53506;BME280;39388;50.936;6.848;2023-02-28T11:21:19;102338.25;;;5.07;39.94
53506;BME280;39388;50.936;6.848;2023-02-28T11:23:54;102334.94;;;5.10;40.13
53506;BME280;39388;50.936;6.848;2023-02-28T11:29:17;102344.19;;;5.26;40.35
53506;BME280;39388;50.936;6.848;2023-02-28T11:34:44;102340.44;;;5.38;39.96
53506;BME280;39388;50.936;6.848;2023-02-28T11:37:18;102325.38;;;5.45;40.01
53506;BME280;39388;50.936;6.848;2023-02-28T11:39:49;102322.38;;;5.55;39.38
53506;BME280;39388;50.936;6.848;2023-02-28T11:42:38;102334.09;;;5.71;39.46
53506;BME280;39388;50.936;6.848;2023-02-28T11:45:35;102327.69;;;5.81;39.80
53506;BME280;39388;50.936;6.848;2023-02-28T11:48:20;102329.63;;;5.87;39.06
53506;BME280;39388;50.936;6.848;2023-02-28T11:51:32;102336.81;;;5.95;40.02
53506;BME280;39388;50.936;6.848;2023-02-28T11:57:00;102332.66;;;5.99;38.92
53506;BME280;39388;50.936;6.848;2023-02-28T12:14:00;102339.94;;;5.67;40.47
53506;BME280;39388;50.936;6.848;2023-02-28T12:19:26;102324.44;;;6.06;39.94
53506;BME280;39388;50.936;6.848;2023-02-28T12:25:02;102309.81;;;6.25;39.97
53506;BME280;39388;50.936;6.848;2023-02-28T12:27:43;102306.84;;;6.16;39.21
53506;BME280;39388;50.936;6.848;2023-02-28T12:30:35;102298.97;;;6.09;40.20
53506;BME280;39388;50.936;6.848;2023-02-28T12:33:16;102300.13;;;6.18;40.30
53506;BME280;39388;50.936;6.848;2023-02-28T12:35:58;102301.22;;;6.24;39.63
53506;BME280;39388;50.936;6.848;2023-02-28T12:38:45;102292.03;;;6.29;39.85
53506;BME280;39388;50.936;6.848;2023-02-28T12:41:29;102299.13;;;6.37;39.12
53506;BME280;39388;50.936;6.848;2023-02-28T12:44:08;102300.75;;;6.35;39.15
53506;BME280;39388;50.936;6.848;2023-02-28T12:46:44;102286.50;;;6.19;38.82
53506;BME280;39388;50.936;6.848;2023-02-28T12:49:28;102282.25;;;6.19;38.67
53506;BME280;39388;50.936;6.848;2023-02-28T12:52:02;102284.81;;;6.19;39.13
53506;BME280;39388;50.936;6.848;2023-02-28T12:54:51;102288.28;;;6.21;37.99
53506;BME280;39388;50.936;6.848;2023-02-28T13:00:16;102277.41;;;6.27;38.26
53506;BME280;39388;50.936;6.848;2023-02-28T13:08:53;102273.22;;;6.29;38.46
53506;BME280;39388;50.936;6.848;2023-02-28T13:11:32;102266.19;;;6.23;38.40
53506;BME280;39388;50.936;6.848;2023-02-28T13:14:05;102261.06;;;6.23;38.33
53506;BME280;39388;50.936;6.848;2023-02-28T13:19:33;102257.69;;;6.24;38.20
53506;BME280;39388;50.936;6.848;2023-02-28T13:22:05;102254.31;;;6.25;38.35
53506;BME280;39388;50.936;6.848;2023-02-28T13:27:53;102257.09;;;6.32;38.00
53506;BME280;39388;50.936;6.848;2023-02-28T13:38:54;102244.47;;;6.36;38.62
53506;BME280;39388;50.936;6.848;2023-02-28T14:05:35;102229.81;;;6.56;37.90
53506;BME280;39388;50.936;6.848;2023-02-28T14:08:22;102191.59;;;6.38;37.85
53506;BME280;39388;50.936;6.848;2023-02-28T14:11:05;102215.78;;;6.47;37.77
53506;BME280;39388;50.936;6.848;2023-02-28T14:13:40;102232.38;;;6.56;37.71
53506;BME280;39388;50.936;6.848;2023-02-28T14:16:17;102219.63;;;6.58;37.22
53506;BME280;39388;50.936;6.848;2023-02-28T14:25:23;102202.41;;;6.54;37.97
53506;BME280;39388;50.936;6.848;2023-02-28T14:36:22;102206.13;;;6.64;38.53
53506;BME280;39388;50.936;6.848;2023-02-28T14:38:57;102204.47;;;6.64;38.62
53506;BME280;39388;50.936;6.848;2023-02-28T14:44:01;102206.22;;;6.65;38.91
53506;BME280;39388;50.936;6.848;2023-02-28T14:46:40;102192.41;;;6.62;39.12
53506;BME280;39388;50.936;6.848;2023-02-28T14:49:34;102205.59;;;6.72;38.39
53506;BME280;39388;50.936;6.848;2023-02-28T14:52:06;102214.22;;;6.74;39.12
53506;BME280;39388;50.936;6.848;2023-02-28T14:54:40;102198.84;;;6.74;38.93
53506;BME280;39388;50.936;6.848;2023-02-28T14:57:29;102190.88;;;6.67;39.02
53506;BME280;39388;50.936;6.848;2023-02-28T15:00:10;102147.28;;;6.41;39.31
53506;BME280;39388;50.936;6.848;2023-02-28T15:02:43;102189.41;;;6.73;39.07
53506;BME280;39388;50.936;6.848;2023-02-28T15:05:34;102191.09;;;6.73;39.49
53506;BME280;39388;50.936;6.848;2023-02-28T15:08:13;102132.56;;;6.35;39.01
53506;BME280;39388;50.936;6.848;2023-02-28T15:11:15;102136.09;;;6.39;38.82
53506;BME280;39388;50.936;6.848;2023-02-28T15:13:53;102167.88;;;6.68;39.14
53506;BME280;39388;50.936;6.848;2023-02-28T15:16:51;102084.03;;;6.16;38.97
53506;BME280;39388;50.936;6.848;2023-02-28T15:19:29;102160.00;;;6.64;38.55
53506;BME280;39388;50.936;6.848;2023-02-28T15:49:40;102187.31;;;6.62;38.43
53506;BME280;39388;50.936;6.848;2023-02-28T15:52:26;102182.09;;;6.60;38.18
53506;BME280;39388;50.936;6.848;2023-02-28T15:54:58;102175.88;;;6.53;38.47
53506;BME280;39388;50.936;6.848;2023-02-28T15:57:29;102180.19;;;6.54;38.48
53506;BME280;39388;50.936;6.848;2023-02-28T16:00:02;102179.38;;;6.55;39.16
53506;BME280;39388;50.936;6.848;2023-02-28T16:02:36;102181.91;;;6.54;38.42
53506;BME280;39388;50.936;6.848;2023-02-28T16:07:41;102192.16;;;6.54;38.79
53506;BME280;39388;50.936;6.848;2023-02-28T16:10:13;102182.66;;;6.51;39.03
53506;BME280;39388;50.936;6.848;2023-02-28T16:12:44;102185.28;;;6.53;38.86
53506;BME280;39388;50.936;6.848;2023-02-28T16:15:24;102192.84;;;6.50;38.74
53506;BME280;39388;50.936;6.848;2023-02-28T16:17:57;102199.56;;;6.46;39.53
53506;BME280;39388;50.936;6.848;2023-02-28T16:20:30;102193.34;;;6.39;38.97
53506;BME280;39388;50.936;6.848;2023-02-28T16:23:00;102199.28;;;6.38;39.06
53506;BME280;39388;50.936;6.848;2023-02-28T16:25:38;102199.16;;;6.35;39.21
53506;BME280;39388;50.936;6.848;2023-02-28T16:28:17;102194.75;;;6.31;39.70
53506;BME280;39388;50.936;6.848;2023-02-28T16:30:52;102200.63;;;6.28;39.80
53506;BME280;39388;50.936;6.848;2023-02-28T16:33:23;102193.59;;;6.23;40.15
53506;BME280;39388;50.936;6.848;2023-02-28T16:35:53;102189.06;;;6.16;39.68
53506;BME280;39388;50.936;6.848;2023-02-28T16:38:23;102203.69;;;6.18;40.21